Sluck, Belarus
Current Conditions -  °F | °C
As of 9:30 AM on Sunday 26 Oct 2014 (Local Time) from UMMM Reporting Station
Clear Clear  
Wind Chill: 17°   Ceiling: Unl
Heat Index: 25°   Visibility: 6mi
Dew Point: 16°   Wind: 7mph
Humidity: 69%   Direction: 160°SSE
Pressure: 30.48"   Gusts: NA
Location:  53.03°N, 27.55°E
Report Text: UMMM 260730Z 16003MPS CAVOK M04/M09 Q1032 R12/CLRD60NOSIG RMK QFE754
Loading
Personal Weather Stations






























Interactive Weather Map New forecast layout! Learn more

10-Day Weather Forecast

Advertisements
Track Severe Weather on mobile